Terminal Aerodrome Forecast
Issued by NWS

Home | Current Version | Previous Version | Text Only | Print | Product List | Glossary On
Versions: 1 2 3 4 5 6 7 8 9 10 11 12 13 14 15 16 17 18 19
000
FTUS41 KPBZ 262324
TAFDUJ
TAF
KDUJ 262324Z 2700/2724 26009KT P6SM VCTS BKN060CB
      TEMPO 2700/2702 3SM -TSRA OVC050CB
     FM270200 24004KT P6SM VCSH BKN120
     FM271000 24005KT P6SM BKN060
     FM271100 24006KT P6SM VCSH BKN020
     FM271500 26008KT P6SM VCSH BKN035=

USA.gov is the U.S. government's official web portal to all federal, state and local government web resources and services.